Terminal Aerodrome Forecast
Issued by NWS

Home | Current Version | Previous Version | Text Only | Print | Product List | Glossary On
Versions: 1 2 3 4 5 6 7 8 9 10 11 12 13 14 15 16 17 18 19 20 21 22 23 24 25 26 27 28 29 30 31 32 33 34 35 36
000
FTUS43 KDLH 011100
TAFHYR
TAF
KHYR 011136Z 0112/0212 15008KT P6SM VCSH OVC010
      TEMPO 0112/0115 -SHRA OVC008
     FM011500 16008KT 5SM -RA BR OVC008
     FM012200 15005KT 4SM -DZ BR OVC006
     FM020700 VRB02KT 3/4SM BR OVC004=

USA.gov is the U.S. government's official web portal to all federal, state and local government web resources and services.